Time;durP1;ratioP1;P1;durP2;ratioP2;P2;SDS_P1;SDS_P2;PMS_P1;PMS_P2;Temp;Humidity;BMP_temperature;BMP_pressure;BME280_temperature;BME280_humidity;BME280_pressure;Samples;Min_cycle;Max_cycle;Signal;HPM_P1;HPM_P2
2021/06/27 00:01:16;;;;;;;16.33;14.20;;;;;;;21.06;61.29;96661.19;5035442;28;20526;-68
2021/06/27 00:03:42;;;;;;;15.50;13.90;;;;;;;21.07;61.04;96660.97;5052066;28;20472;-68
2021/06/27 00:06:08;;;;;;;14.50;12.73;;;;;;;21.10;60.80;96667.66;5051884;28;20422;-66
2021/06/27 00:08:34;;;;;;;15.33;13.47;;;;;;;21.11;60.87;96666.63;5051162;28;20641;-67
2021/06/27 00:11:00;;;;;;;14.23;12.83;;;;;;;21.09;60.62;96664.22;5036014;28;20207;-66
2021/06/27 00:13:28;;;;;;;14.00;12.57;;;;;;;21.09;60.51;96666.03;5052134;28;20500;-66
2021/06/27 00:15:54;;;;;;;13.77;12.33;;;;;;;21.06;60.85;96664.66;5052172;28;20481;-67
2021/06/27 00:18:21;;;;;;;14.63;12.80;;;;;;;21.04;60.61;96665.97;5051744;28;20467;-67
2021/06/27 00:20:48;;;;;;;14.67;13.10;;;;;;;21.01;61.26;96667.22;5016017;28;20429;-67
2021/06/27 00:23:17;;;;;;;16.13;13.13;;;;;;;21.00;61.07;96670.91;5049844;28;20465;-66
2021/06/27 00:25:46;;;;;;;12.80;11.50;;;;;;;20.98;61.17;96673.03;5050557;28;20429;-66
2021/06/27 00:28:11;;;;;;;13.37;12.07;;;;;;;20.89;60.87;96664.56;5051243;28;20452;-67
2021/06/27 00:30:38;;;;;;;13.23;11.93;;;;;;;20.84;61.23;96670.59;5043001;28;20431;-67
2021/06/27 00:33:04;;;;;;;12.40;11.20;;;;;;;20.84;61.08;96667.09;5029788;28;20200;-67
2021/06/27 00:35:31;;;;;;;12.87;11.50;;;;;;;20.80;61.17;96661.44;5051196;28;20429;-67
2021/06/27 00:37:57;;;;;;;12.30;11.00;;;;;;;20.80;61.08;96666.75;5050687;28;20453;-67
2021/06/27 00:40:25;;;;;;;12.10;10.90;;;;;;;20.82;60.83;96658.53;5033249;28;20562;-67
2021/06/27 00:42:51;;;;;;;12.83;11.53;;;;;;;20.77;60.79;96658.44;5051456;28;20203;-67
2021/06/27 00:45:19;;;;;;;13.77;12.40;;;;;;;20.62;61.40;96667.63;5050144;28;20537;-68
2021/06/27 00:47:46;;;;;;;15.10;12.07;;;;;;;20.45;62.28;96669.34;5051127;28;20425;-68
2021/06/27 00:50:15;;;;;;;14.10;12.60;;;;;;;20.41;62.24;96664.47;5051074;28;20455;-67
2021/06/27 00:52:41;;;;;;;13.90;11.60;;;;;;;20.51;61.63;96657.78;5051570;28;20515;-68
2021/06/27 00:55:07;;;;;;;12.73;11.50;;;;;;;20.52;61.80;96654.09;5050341;28;21000;-68
2021/06/27 00:57:33;;;;;;;12.70;11.50;;;;;;;20.51;61.98;96658.59;5051608;28;20183;-68
2021/06/27 01:00:01;;;;;;;15.00;11.83;;;;;;;20.37;62.49;96660.66;5049984;28;20525;-67
2021/06/27 01:02:26;;;;;;;12.87;11.50;;;;;;;20.30;62.38;96659.94;5035691;28;20209;-68
2021/06/27 01:04:52;;;;;;;13.80;12.07;;;;;;;20.23;62.82;96667.22;5050752;28;20457;-67
2021/06/27 01:07:17;;;;;;;14.43;12.80;;;;;;;20.25;62.86;96670.47;5051044;28;20178;-68
2021/06/27 01:09:43;;;;;;;16.87;12.30;;;;;;;20.20;62.70;96667.66;5052108;28;20246;-67
2021/06/27 01:12:09;;;;;;;13.13;11.83;;;;;;;19.82;64.24;96671.41;5050100;28;20207;-67
2021/06/27 01:14:34;;;;;;;12.40;11.17;;;;;;;20.06;63.37;96665.19;5049774;28;20312;-66
2021/06/27 01:17:00;;;;;;;13.97;12.63;;;;;;;20.06;63.36;96659.06;5050769;28;20187;-68
2021/06/27 01:19:33;;;;;;;13.20;11.77;;;;;;;20.11;63.03;96669.81;5050829;28;20175;-68
2021/06/27 01:21:59;;;;;;;13.43;12.03;;;;;;;20.17;62.65;96668.09;5047511;28;20252;-68
2021/06/27 01:24:26;;;;;;;16.50;11.27;;;;;;;20.15;62.55;96675.53;5051320;28;20551;-68
2021/06/27 01:26:51;;;;;;;12.70;10.80;;;;;;;20.18;62.78;96677.72;5051628;28;20574;-68
2021/06/27 01:29:17;;;;;;;12.37;11.17;;;;;;;19.98;63.64;96681.47;5049931;28;20434;-67
2021/06/27 01:31:44;;;;;;;13.33;11.80;;;;;;;20.13;63.15;96672.28;5029347;28;20185;-68
2021/06/27 01:34:11;;;;;;;12.90;11.60;;;;;;;20.15;62.79;96681.63;5049309;28;20199;-71
2021/06/27 01:36:36;;;;;;;12.50;11.20;;;;;;;20.02;63.20;96689.81;5049059;28;20697;-67
2021/06/27 01:39:03;;;;;;;11.50;10.40;;;;;;;20.10;63.01;96686.81;5050096;28;20433;-67
2021/06/27 01:41:28;;;;;;;12.03;10.03;;;;;;;20.15;62.41;96680.84;5048618;28;20187;-67
2021/06/27 01:43:54;;;;;;;12.80;11.50;;;;;;;20.10;62.21;96669.03;5050221;28;20464;-67
2021/06/27 01:46:20;;;;;;;11.57;10.40;;;;;;;20.12;62.39;96675.97;5050581;28;20233;-67
2021/06/27 01:48:45;;;;;;;12.83;11.53;;;;;;;19.99;62.37;96677.78;5049520;28;20232;-67
2021/06/27 01:51:11;;;;;;;12.73;11.43;;;;;;;19.87;63.21;96682.22;5050657;28;20202;-68
2021/06/27 01:53:39;;;;;;;11.77;10.33;;;;;;;19.79;63.39;96673.50;5048700;28;20924;-67
2021/06/27 01:56:07;;;;;;;13.30;12.00;;;;;;;19.66;64.02;96673.66;5049535;28;20189;-66
2021/06/27 01:58:38;;;;;;;14.17;12.13;;;;;;;19.70;63.95;96674.84;5050114;28;20976;-66
2021/06/27 02:01:06;;;;;;;15.77;12.43;;;;;;;19.62;64.25;96670.63;5035533;28;20421;-67
2021/06/27 02:03:32;;;;;;;13.13;11.73;;;;;;;19.73;63.73;96674.41;5048815;28;20469;-67
2021/06/27 02:05:57;;;;;;;12.60;11.30;;;;;;;19.80;63.37;96675.09;5050224;28;20421;-68
2021/06/27 02:08:28;;;;;;;12.53;10.97;;;;;;;19.70;63.48;96666.88;5050477;28;20188;-68
2021/06/27 02:10:53;;;;;;;18.20;11.23;;;;;;;19.65;63.79;96672.06;5048580;28;20187;-68
2021/06/27 02:13:19;;;;;;;15.10;11.80;;;;;;;19.73;63.36;96674.41;5047993;28;20562;-68
2021/06/27 02:15:44;;;;;;;13.67;12.27;;;;;;;19.59;63.82;96675.59;5049070;28;20179;-69
2021/06/27 02:18:10;;;;;;;12.13;11.00;;;;;;;19.67;63.31;96672.63;5049848;28;20187;-67
2021/06/27 02:20:36;;;;;;;12.77;11.53;;;;;;;19.35;64.67;96678.09;5053726;28;20201;-67
2021/06/27 02:23:02;;;;;;;18.03;13.50;;;;;;;19.34;64.49;96665.84;5051036;28;20706;-67
2021/06/27 02:25:28;;;;;;;13.03;11.73;;;;;;;19.36;64.33;96668.28;5053458;28;20613;-65
2021/06/27 02:27:54;;;;;;;15.73;13.40;;;;;;;19.41;64.11;96663.13;5053140;28;20179;-67
2021/06/27 02:30:21;;;;;;;20.33;12.70;;;;;;;19.35;64.24;96651.53;5049120;28;20487;-67
2021/06/27 02:32:47;;;;;;;14.13;12.70;;;;;;;19.26;64.42;96643.06;5042312;28;20325;-67
2021/06/27 02:35:13;;;;;;;13.10;11.80;;;;;;;19.38;64.06;96643.13;5053223;28;20909;-67
2021/06/27 02:37:40;;;;;;;19.20;11.63;;;;;;;19.48;63.63;96639.94;5053071;28;20790;-67
2021/06/27 02:40:08;;;;;;;14.77;12.73;;;;;;;19.50;63.41;96637.88;5053211;28;20936;-67
2021/06/27 02:42:34;;;;;;;13.83;10.73;;;;;;;19.54;63.17;96638.22;5053168;28;20441;-67
2021/06/27 02:45:00;;;;;;;12.37;11.10;;;;;;;19.61;63.08;96639.78;5052385;28;20418;-68
2021/06/27 02:47:25;;;;;;;14.53;11.70;;;;;;;19.66;63.10;96636.44;5052597;28;20654;-66
2021/06/27 02:49:51;;;;;;;13.33;11.27;;;;;;;19.68;63.23;96633.56;5053374;28;20429;-68
2021/06/27 02:52:17;;;;;;;12.33;11.03;;;;;;;19.72;62.86;96630.25;5051887;28;20221;-69
2021/06/27 02:54:42;;;;;;;12.67;11.37;;;;;;;19.74;62.90;96628.19;5053219;28;20179;-68
2021/06/27 02:57:08;;;;;;;12.83;11.17;;;;;;;19.67;62.55;96624.78;5053029;28;20190;-67
2021/06/27 02:59:33;;;;;;;13.73;12.20;;;;;;;19.64;62.51;96630.56;5052964;28;20211;-68
2021/06/27 03:01:59;;;;;;;13.97;11.93;;;;;;;19.60;62.67;96627.53;5038389;28;20579;-68
2021/06/27 03:04:25;;;;;;;13.97;12.10;;;;;;;19.41;63.43;96633.91;5034304;28;20796;-68
2021/06/27 03:06:50;;;;;;;19.63;11.33;;;;;;;19.45;63.25;96627.13;5053216;28;20190;-68
2021/06/27 03:09:16;;;;;;;13.23;11.13;;;;;;;19.39;63.26;96620.84;5052663;28;20218;-68
2021/06/27 03:11:41;;;;;;;12.47;11.13;;;;;;;19.49;63.00;96615.81;5052839;28;20193;-68
2021/06/27 03:14:07;;;;;;;11.80;10.60;;;;;;;19.58;62.71;96615.50;5053178;28;20262;-67
2021/06/27 03:16:32;;;;;;;14.03;10.43;;;;;;;19.66;62.54;96601.88;5053379;28;20183;-67
2021/06/27 03:18:58;;;;;;;12.17;10.87;;;;;;;19.71;62.32;96591.41;5053350;28;20186;-68
2021/06/27 03:21:24;;;;;;;11.83;10.10;;;;;;;19.76;61.92;96599.53;5050146;28;20270;-66
2021/06/27 03:23:49;;;;;;;12.10;10.27;;;;;;;19.73;62.16;96610.59;5051452;28;20319;-66
2021/06/27 03:26:15;;;;;;;17.03;10.50;;;;;;;19.75;62.23;96603.22;5051205;28;20191;-66
2021/06/27 03:28:43;;;;;;;11.10;10.03;;;;;;;19.81;62.02;96604.16;5052015;28;20810;-66
2021/06/27 03:31:09;;;;;;;10.27;9.33;;;;;;;19.85;61.90;96586.69;5043166;28;20267;-67
2021/06/27 03:33:34;;;;;;;9.53;8.60;;;;;;;19.90;61.70;96588.72;5052201;28;20472;-67
2021/06/27 03:36:00;;;;;;;17.43;9.23;;;;;;;19.93;61.55;96590.91;5052887;28;20271;-68
2021/06/27 03:38:38;;;;;;;18.23;11.83;;;;;;;19.91;61.52;96583.19;5052161;28;20174;-67
2021/06/27 03:41:03;;;;;;;15.10;12.53;;;;;;;19.95;61.51;96586.19;5046439;28;20222;-68
2021/06/27 03:43:29;;;;;;;16.50;13.10;;;;;;;19.98;61.34;96575.09;5050961;28;20461;-68
2021/06/27 03:45:55;;;;;;;18.00;12.40;;;;;;;20.00;61.19;96580.19;5052312;28;20285;-67
2021/06/27 03:48:20;;;;;;;14.80;12.23;;;;;;;20.02;61.20;96570.97;5051597;28;20179;-68
2021/06/27 03:50:46;;;;;;;12.03;10.77;;;;;;;20.05;61.25;96575.81;5031422;28;20553;-67
2021/06/27 03:53:11;;;;;;;11.63;9.93;;;;;;;20.10;61.25;96567.13;5051234;28;20361;-69
2021/06/27 03:55:37;;;;;;;10.00;9.10;;;;;;;20.14;61.08;96567.50;5052224;28;20186;-67
2021/06/27 03:58:03;;;;;;;10.13;9.13;;;;;;;20.16;60.87;96570.75;5051496;28;20183;-67
2021/06/27 04:00:28;;;;;;;8.80;7.90;;;;;;;20.18;60.92;96579.28;5051933;28;20429;-67
2021/06/27 04:02:54;;;;;;;15.03;8.17;;;;;;;20.21;60.97;96597.47;5050726;28;20249;-67
2021/06/27 04:05:20;;;;;;;11.53;8.37;;;;;;;19.97;61.23;96600.06;5051112;28;20185;-68
2021/06/27 04:07:45;;;;;;;8.90;8.10;;;;;;;20.16;60.72;96608.78;5050477;28;20191;-66
2021/06/27 04:10:11;;;;;;;9.10;7.77;;;;;;;20.28;60.64;96611.47;5051570;28;20195;-68
2021/06/27 04:12:37;;;;;;;8.83;7.67;;;;;;;20.38;60.07;96614.38;5033513;28;20199;-68
2021/06/27 04:15:05;;;;;;;10.97;8.00;;;;;;;20.44;60.18;96617.16;5051144;28;20428;-68
2021/06/27 04:17:30;;;;;;;8.37;7.57;;;;;;;20.37;60.05;96620.75;5051230;28;20183;-67
2021/06/27 04:19:56;;;;;;;10.53;8.53;;;;;;;20.25;60.22;96618.06;5044835;28;20431;-67
2021/06/27 04:22:22;;;;;;;8.83;8.03;;;;;;;20.37;60.01;96615.41;5047780;28;20202;-67
2021/06/27 04:24:48;;;;;;;8.60;7.70;;;;;;;20.53;59.40;96605.16;5051221;28;20468;-68
2021/06/27 04:27:13;;;;;;;8.50;7.70;;;;;;;20.59;59.26;96604.22;5050302;28;20190;-67
2021/06/27 04:29:39;;;;;;;9.67;7.70;;;;;;;20.68;58.94;96605.47;5051148;28;20183;-66
2021/06/27 04:32:05;;;;;;;12.87;8.10;;;;;;;20.70;58.61;96603.41;5051209;28;20203;-67
2021/06/27 04:34:32;;;;;;;9.13;7.17;;;;;;;20.75;58.25;96610.72;5050973;28;20254;-67
2021/06/27 04:36:57;;;;;;;8.87;7.30;;;;;;;20.80;57.96;96612.69;5050991;28;20201;-67
2021/06/27 04:39:23;;;;;;;9.33;7.70;;;;;;;20.84;57.71;96624.50;5049737;28;20445;-68
2021/06/27 04:41:49;;;;;;;10.90;7.87;;;;;;;20.95;57.48;96623.66;5050988;28;20194;-67
2021/06/27 04:44:14;;;;;;;8.53;6.80;;;;;;;20.99;57.72;96630.16;5050671;28;20555;-67
2021/06/27 04:46:40;;;;;;;11.67;8.43;;;;;;;21.04;57.58;96628.66;5050454;28;20827;-67
2021/06/27 04:49:07;;;;;;;8.23;6.77;;;;;;;21.14;57.45;96627.00;5050396;28;20179;-67
2021/06/27 04:51:34;;;;;;;8.07;7.33;;;;;;;21.22;57.40;96617.84;5047098;28;20183;-67
2021/06/27 04:54:00;;;;;;;9.67;7.40;;;;;;;21.31;57.30;96619.09;5051049;28;20998;-67
2021/06/27 04:56:25;;;;;;;7.70;7.00;;;;;;;21.37;56.90;96612.00;5051526;28;20413;-67
2021/06/27 04:58:51;;;;;;;9.77;6.40;;;;;;;21.43;56.82;96613.75;5049983;28;20210;-67
2021/06/27 05:01:17;;;;;;;7.53;6.83;;;;;;;21.50;56.60;96605.63;5049599;28;20183;-67
2021/06/27 05:03:42;;;;;;;7.73;7.03;;;;;;;21.53;56.21;96609.66;5051552;28;20207;-66
2021/06/27 05:06:08;;;;;;;7.73;6.90;;;;;;;21.59;56.13;96604.22;5050597;28;20229;-67
2021/06/27 05:08:33;;;;;;;8.47;7.60;;;;;;;21.65;55.80;96602.44;5052593;28;20205;-68
2021/06/27 05:10:59;;;;;;;7.20;6.50;;;;;;;21.65;55.92;96601.66;5052001;28;20214;-66
2021/06/27 05:13:25;;;;;;;9.40;7.30;;;;;;;21.71;55.81;96598.84;5050637;28;20211;-67
2021/06/27 05:15:51;;;;;;;7.50;6.63;;;;;;;21.77;55.37;96592.53;5050710;28;20634;-66
2021/06/27 05:18:17;;;;;;;8.90;8.00;;;;;;;21.70;55.37;96591.06;5050204;28;20429;-67
2021/06/27 05:20:42;;;;;;;7.87;7.17;;;;;;;21.76;55.32;96584.81;5026711;28;20475;-68
2021/06/27 05:23:08;;;;;;;8.70;7.57;;;;;;;21.75;55.27;96588.50;5046986;28;20210;-68
2021/06/27 05:25:34;;;;;;;8.03;7.23;;;;;;;21.96;55.18;96591.53;5050267;28;20183;-67
2021/06/27 05:28:00;;;;;;;7.80;7.00;;;;;;;22.08;54.58;96585.09;5048187;28;20183;-66
2021/06/27 05:30:26;;;;;;;6.80;6.20;;;;;;;22.17;54.19;96577.50;5040411;28;20179;-66
2021/06/27 05:32:51;;;;;;;8.43;7.30;;;;;;;22.28;53.77;96594.47;5050351;28;20559;-67
2021/06/27 05:35:17;;;;;;;6.57;5.97;;;;;;;22.39;53.12;96587.44;5048630;28;20469;-68
2021/06/27 05:37:42;;;;;;;9.50;6.50;;;;;;;22.32;53.07;96597.44;5050457;28;20187;-68
2021/06/27 05:40:09;;;;;;;6.93;6.23;;;;;;;22.29;52.91;96595.28;5049500;28;20711;-67
2021/06/27 05:42:34;;;;;;;7.87;7.17;;;;;;;22.19;53.70;96586.06;5049934;28;20202;-67
2021/06/27 05:45:00;;;;;;;7.43;6.83;;;;;;;22.17;53.39;96588.19;5050296;28;20493;-66
2021/06/27 05:47:25;;;;;;;7.13;6.43;;;;;;;22.27;52.69;96597.38;5034230;28;20679;-67
2021/06/27 05:49:51;;;;;;;7.07;6.37;;;;;;;22.40;52.62;96595.19;5037489;28;20271;-67
2021/06/27 05:52:16;;;;;;;6.43;5.83;;;;;;;22.23;52.74;96597.06;5048117;28;20238;-68
2021/06/27 05:54:42;;;;;;;8.23;6.00;;;;;;;22.44;52.27;96584.88;5054499;28;20203;-67
2021/06/27 05:57:08;;;;;;;7.03;6.40;;;;;;;22.50;52.21;96580.41;5054074;28;20720;-68
2021/06/27 05:59:33;;;;;;;6.40;5.90;;;;;;;22.48;52.46;96583.34;5043845;28;20205;-68
2021/06/27 06:01:59;;;;;;;7.80;6.33;;;;;;;22.33;52.85;96583.06;5053841;28;20217;-68
2021/06/27 06:04:24;;;;;;;6.70;6.10;;;;;;;22.13;53.42;96578.19;5053680;28;20206;-67
2021/06/27 06:06:50;;;;;;;7.03;6.33;;;;;;;22.20;53.04;96577.00;5054545;28;20187;-66
2021/06/27 06:09:16;;;;;;;10.23;7.80;;;;;;;22.48;52.71;96580.66;5056265;28;20239;-66
2021/06/27 06:11:41;;;;;;;11.90;10.00;;;;;;;22.32;53.61;96584.09;5054375;28;20262;-67
2021/06/27 06:14:07;;;;;;;8.47;6.50;;;;;;;22.68;52.65;96585.50;5053069;28;20621;-68
2021/06/27 06:16:32;;;;;;;11.70;7.87;;;;;;;22.60;52.90;96595.78;5044633;28;20178;-66
2021/06/27 06:18:59;;;;;;;7.00;6.37;;;;;;;22.76;52.71;96594.13;5053237;28;20187;-66
2021/06/27 06:21:24;;;;;;;15.67;6.27;;;;;;;22.91;52.12;96602.38;5051267;28;20189;-68
2021/06/27 06:23:50;;;;;;;6.80;6.20;;;;;;;23.01;52.25;96607.06;5053570;28;20911;-67
2021/06/27 06:26:15;;;;;;;7.80;6.87;;;;;;;23.28;51.71;96598.34;5037333;28;20608;-67
2021/06/27 06:28:41;;;;;;;13.13;6.43;;;;;;;23.62;50.96;96588.31;5049727;28;20240;-67
2021/06/27 06:31:08;;;;;;;8.00;7.20;;;;;;;23.77;50.24;96593.00;5048225;28;20202;-67
2021/06/27 06:33:34;;;;;;;10.50;6.57;;;;;;;24.16;49.21;96581.31;5052027;28;20190;-67
2021/06/27 06:36:00;;;;;;;6.67;6.07;;;;;;;24.41;48.20;96587.16;5052750;28;20776;-69
2021/06/27 06:38:26;;;;;;;9.17;6.83;;;;;;;24.51;47.78;96588.00;5053557;28;20410;-67
2021/06/27 06:40:51;;;;;;;10.07;7.43;;;;;;;24.73;47.31;96581.78;5053662;28;20191;-68
2021/06/27 06:43:17;;;;;;;7.10;5.53;;;;;;;24.66;47.37;96584.66;5053135;28;20219;-68
2021/06/27 06:45:42;;;;;;;6.13;5.57;;;;;;;24.81;47.13;96572.44;5053638;28;20179;-68
2021/06/27 06:48:08;;;;;;;7.63;6.13;;;;;;;24.77;47.29;96568.66;5051711;28;20178;-67
2021/06/27 06:50:34;;;;;;;6.00;5.50;;;;;;;24.78;47.11;96567.59;5053808;28;20190;-67
2021/06/27 06:52:59;;;;;;;12.63;5.00;;;;;;;24.99;46.94;96569.31;5052407;28;20203;-68
2021/06/27 06:55:27;;;;;;;5.20;4.70;;;;;;;24.86;47.42;96574.34;5052360;28;20181;-67
2021/06/27 06:57:53;;;;;;;5.43;5.03;;;;;;;24.62;47.56;96569.34;5051711;28;20578;-67
2021/06/27 07:00:19;;;;;;;5.57;5.10;;;;;;;24.76;47.76;96577.75;5026198;28;20427;-68
2021/06/27 07:02:44;;;;;;;6.30;5.80;;;;;;;24.87;47.56;96576.75;5052904;28;20206;-68
2021/06/27 07:05:10;;;;;;;5.70;5.20;;;;;;;24.88;47.31;96572.22;5051737;28;20421;-68
2021/06/27 07:07:36;;;;;;;5.73;5.13;;;;;;;25.07;47.04;96576.06;5051940;28;20179;-68
2021/06/27 07:10:05;;;;;;;5.27;4.87;;;;;;;25.38;46.30;96570.81;5053024;28;21019;-68
2021/06/27 07:12:31;;;;;;;5.73;5.23;;;;;;;25.67;45.63;96577.63;5051642;28;20791;-68
2021/06/27 07:14:57;;;;;;;5.37;4.97;;;;;;;25.97;45.40;96563.44;5052056;28;20413;-67
2021/06/27 07:17:22;;;;;;;5.13;4.60;;;;;;;26.05;45.49;96567.47;5052481;28;20532;-67
2021/06/27 07:19:48;;;;;;;5.57;5.10;;;;;;;26.51;44.47;96569.38;5052695;28;20654;-66
2021/06/27 07:22:14;;;;;;;5.20;4.80;;;;;;;26.81;43.82;96568.53;5049843;28;20237;-67
2021/06/27 07:24:39;;;;;;;5.03;4.63;;;;;;;27.02;43.16;96570.38;5052780;28;20563;-66
2021/06/27 07:27:06;;;;;;;6.67;4.83;;;;;;;26.96;43.11;96580.34;5052643;28;20282;-68
2021/06/27 07:29:31;;;;;;;5.43;4.90;;;;;;;26.74;43.64;96572.56;5042532;28;20178;-67
2021/06/27 07:31:57;;;;;;;6.90;4.67;;;;;;;26.71;43.17;96567.72;5047739;28;20873;-66
2021/06/27 07:34:23;;;;;;;5.20;4.70;;;;;;;26.79;43.99;96568.00;5051218;28;20171;-66
2021/06/27 07:36:48;;;;;;;5.10;4.60;;;;;;;26.83;43.22;96566.38;5052379;28;20245;-67
2021/06/27 07:39:15;;;;;;;5.23;4.70;;;;;;;27.00;43.02;96570.63;5051932;28;20195;-68
2021/06/27 07:41:40;;;;;;;10.00;8.20;;;;;;;27.23;42.71;96563.81;5050809;28;20205;-68
2021/06/27 07:44:06;;;;;;;4.50;4.17;;;;;;;27.30;42.47;96560.84;5051747;28;20457;-68
2021/06/27 07:46:32;;;;;;;6.10;5.50;;;;;;;27.01;42.68;96564.16;5051885;28;20262;-68
2021/06/27 07:48:57;;;;;;;5.07;4.67;;;;;;;27.40;42.05;96557.31;5051948;28;20183;-67
2021/06/27 07:51:23;;;;;;;4.83;4.43;;;;;;;27.59;41.63;96560.97;5050728;28;20692;-68
2021/06/27 07:53:49;;;;;;;5.80;4.80;;;;;;;27.82;41.61;96564.06;5051305;28;20293;-67
2021/06/27 07:56:14;;;;;;;5.00;4.60;;;;;;;27.88;41.52;96562.97;5052042;28;20535;-68
2021/06/27 07:58:40;;;;;;;7.30;6.60;;;;;;;27.69;42.38;96560.13;5048277;28;20182;-68
2021/06/27 08:01:06;;;;;;;5.23;4.83;;;;;;;27.95;41.72;96557.25;5029838;28;20180;-68
2021/06/27 08:03:31;;;;;;;5.20;4.70;;;;;;;27.98;41.52;96553.97;5051239;28;20604;-67
2021/06/27 08:06:00;;;;;;;4.33;3.67;;;;;;;28.42;40.29;96554.19;5052416;28;20191;-67
2021/06/27 08:08:25;;;;;;;4.83;4.40;;;;;;;27.92;41.09;96562.38;5050980;28;20171;-71
2021/06/27 08:10:51;;;;;;;4.30;4.00;;;;;;;28.14;41.19;96554.72;5051988;28;20422;-68
2021/06/27 08:13:17;;;;;;;4.43;4.13;;;;;;;28.02;41.08;96560.41;5052019;28;20533;-68
2021/06/27 08:15:42;;;;;;;3.87;3.50;;;;;;;28.56;39.72;96551.63;5052146;28;20584;-67
2021/06/27 08:18:08;;;;;;;4.83;4.40;;;;;;;28.79;39.67;96553.59;5051629;28;20183;-68
2021/06/27 08:20:34;;;;;;;4.10;3.80;;;;;;;28.63;39.27;96560.19;5052213;28;20192;-67
2021/06/27 08:22:59;;;;;;;4.30;3.90;;;;;;;28.79;39.04;96569.78;5048993;28;20207;-67
2021/06/27 08:25:25;;;;;;;4.93;4.37;;;;;;;28.76;39.49;96564.94;5051001;28;20183;-67
2021/06/27 08:27:51;;;;;;;4.10;3.80;;;;;;;29.14;38.70;96558.84;5049622;28;20186;-67
2021/06/27 08:30:18;;;;;;;4.37;4.03;;;;;;;29.32;37.34;96564.56;5042243;28;20186;-67
2021/06/27 08:32:45;;;;;;;3.63;3.30;;;;;;;29.10;38.02;96557.84;5050304;28;20289;-66
2021/06/27 08:35:12;;;;;;;4.20;3.80;;;;;;;28.90;38.70;96556.97;5050240;28;20520;-67
2021/06/27 08:37:37;;;;;;;5.07;4.00;;;;;;;29.17;38.39;96552.09;5051471;28;20414;-66
2021/06/27 08:40:04;;;;;;;5.90;4.33;;;;;;;29.14;38.48;96552.66;5051595;28;20437;-67
2021/06/27 08:42:30;;;;;;;3.70;3.40;;;;;;;29.23;37.86;96546.34;5051913;28;20198;-67
2021/06/27 08:44:56;;;;;;;4.77;3.73;;;;;;;29.43;37.90;96545.28;5051061;28;20453;-68
2021/06/27 08:47:21;;;;;;;4.07;3.77;;;;;;;29.08;38.84;96549.22;5051997;28;20183;-67
2021/06/27 08:49:48;;;;;;;6.70;4.40;;;;;;;29.54;38.39;96545.94;5052251;28;20186;-67
2021/06/27 08:52:20;;;;;;;6.43;5.93;;;;;;;29.65;37.65;96535.00;5053482;28;20206;-67
2021/06/27 08:54:48;;;;;;;4.23;3.93;;;;;;;29.87;36.70;96542.50;5053114;28;20437;-67
2021/06/27 08:57:14;;;;;;;5.13;4.00;;;;;;;30.22;36.65;96532.25;5056943;28;20421;-68
2021/06/27 08:59:40;;;;;;;4.23;3.83;;;;;;;29.60;36.45;96537.78;5048504;28;20932;-67
2021/06/27 09:02:08;;;;;;;7.43;5.57;;;;;;;29.63;37.19;96537.19;5060166;28;20441;-66
2021/06/27 09:04:38;;;;;;;4.70;4.30;;;;;;;30.24;36.39;96523.88;5059187;28;20796;-68
2021/06/27 09:07:26;;;;;;;4.03;3.63;;;;;;;30.44;35.39;96519.97;5052342;28;21098;-67
2021/06/27 09:09:52;;;;;;;3.20;3.00;;;;;;;30.42;35.42;96520.28;5043195;28;20409;-66
2021/06/27 09:12:18;;;;;;;3.70;3.50;;;;;;;30.69;34.72;96534.97;5050936;28;20671;-66
2021/06/27 09:14:45;;;;;;;3.23;3.03;;;;;;;30.08;35.42;96532.22;5051388;28;20190;-66
2021/06/27 09:17:25;;;;;;;3.47;3.17;;;;;;;30.29;34.68;96529.16;5050810;28;20183;-67
2021/06/27 09:19:50;;;;;;;7.63;3.47;;;;;;;30.44;34.74;96531.59;5050629;28;20506;-66
2021/06/27 09:22:16;;;;;;;3.00;2.80;;;;;;;29.75;35.80;96529.44;5047985;28;20536;-67
2021/06/27 09:24:43;;;;;;;3.87;3.57;;;;;;;30.32;34.81;96525.88;5048986;28;20207;-67
2021/06/27 09:27:22;;;;;;;3.83;3.47;;;;;;;30.79;33.36;96529.34;5050592;28;20186;-68
2021/06/27 09:29:49;;;;;;;8.43;4.13;;;;;;;30.67;34.69;96528.25;5045684;28;20417;-68
2021/06/27 09:32:16;;;;;;;3.47;3.27;;;;;;;30.39;34.95;96525.50;5054511;28;21012;-67
2021/06/27 09:34:43;;;;;;;3.73;3.43;;;;;;;30.43;35.42;96521.88;5054550;28;20417;-67
2021/06/27 09:37:08;;;;;;;3.37;3.17;;;;;;;30.71;35.35;96527.38;5047201;28;20433;-66
2021/06/27 09:39:36;;;;;;;6.33;3.37;;;;;;;30.30;35.52;96525.38;5053302;28;20445;-69
2021/06/27 09:42:04;;;;;;;4.07;3.30;;;;;;;30.33;35.28;96527.47;5052175;28;20737;-68
2021/06/27 09:44:30;;;;;;;3.57;3.37;;;;;;;30.85;34.03;96537.38;5053666;28;20819;-67
2021/06/27 09:46:57;;;;;;;3.20;3.00;;;;;;;30.98;33.42;96525.75;5054680;28;20517;-67
2021/06/27 09:49:25;;;;;;;2.97;2.77;;;;;;;31.65;32.61;96535.16;5052924;28;20264;-68
2021/06/27 09:51:52;;;;;;;3.60;3.30;;;;;;;31.21;33.80;96533.97;5053330;28;20445;-68
2021/06/27 09:54:26;;;;;;;4.00;3.50;;;;;;;31.01;33.36;96535.94;5053970;28;20839;-68
2021/06/27 09:56:52;;;;;;;3.57;2.90;;;;;;;31.71;33.05;96533.16;5054409;28;20433;-67
2021/06/27 09:59:20;;;;;;;3.60;3.40;;;;;;;32.20;32.20;96533.38;5043623;28;20446;-67
2021/06/27 10:01:46;;;;;;;3.17;2.97;;;;;;;32.29;31.66;96538.88;5052948;28;20425;-67
2021/06/27 10:04:13;;;;;;;3.10;2.90;;;;;;;31.55;33.32;96528.09;5053755;28;20453;-66
2021/06/27 10:06:53;;;;;;;3.13;2.93;;;;;;;31.80;33.03;96527.81;5054358;28;20530;-67
2021/06/27 10:09:21;;;;;;;4.43;3.10;;;;;;;31.58;34.01;96523.16;5053775;28;20417;-65
2021/06/27 10:11:59;;;;;;;4.40;3.20;;;;;;;31.58;33.51;96525.88;5035942;28;20469;-66
2021/06/27 10:14:27;;;;;;;4.23;3.47;;;;;;;32.19;32.03;96523.63;5053263;28;20417;-67
2021/06/27 10:16:54;;;;;;;3.00;2.80;;;;;;;31.44;32.90;96518.59;5054080;28;20438;-67
2021/06/27 10:19:20;;;;;;;3.40;3.10;;;;;;;31.41;32.46;96524.63;5033720;28;20431;-67
2021/06/27 10:21:46;;;;;;;3.03;2.83;;;;;;;31.38;32.04;96512.47;5051312;28;20500;-68
2021/06/27 10:24:12;;;;;;;2.67;2.30;;;;;;;30.71;32.82;96513.03;5053216;28;20460;-68
2021/06/27 10:26:39;;;;;;;3.30;3.00;;;;;;;31.19;33.13;96511.81;5052540;28;20519;-67
2021/06/27 10:29:05;;;;;;;2.80;2.60;;;;;;;31.32;32.07;96523.72;5043779;28;20549;-66
2021/06/27 10:31:30;;;;;;;3.00;2.80;;;;;;;31.60;30.43;96519.06;5053845;28;20421;-67
2021/06/27 10:33:56;;;;;;;3.20;3.00;;;;;;;31.70;30.97;96524.25;5038030;28;20204;-66
2021/06/27 10:36:29;;;;;;;4.43;4.03;;;;;;;31.94;30.78;96522.38;5051373;28;20183;-67
2021/06/27 10:38:56;;;;;;;2.67;2.23;;;;;;;32.50;29.68;96516.66;5051319;28;20215;-66
2021/06/27 10:42:00;;;;;;;2.60;2.40;;;;;;;30.97;31.87;96513.34;5053010;28;20426;-67
2021/06/27 10:44:38;;;;;;;3.20;2.97;;;;;;;32.01;31.17;96517.31;5052839;28;20823;-67
2021/06/27 10:47:05;;;;;;;2.73;2.53;;;;;;;32.41;28.93;96525.53;5052720;28;20424;-67
2021/06/27 10:49:31;;;;;;;2.40;2.30;;;;;;;32.56;28.05;96526.25;5053018;28;20426;-68
2021/06/27 10:52:03;;;;;;;3.10;2.23;;;;;;;33.21;27.41;96513.06;5052715;28;20422;-67
2021/06/27 10:54:30;;;;;;;2.37;2.27;;;;;;;33.50;27.22;96520.66;5052137;28;20179;-67
2021/06/27 10:56:59;;;;;;;2.30;2.20;;;;;;;33.65;26.18;96511.22;5052010;28;20418;-68
2021/06/27 10:59:40;;;;;;;5.50;4.47;;;;;;;33.85;26.36;96509.78;5042004;28;21035;-68
2021/06/27 11:02:39;;;;;;;2.23;2.13;;;;;;;33.56;27.41;96512.34;5052610;28;20422;-66
2021/06/27 11:05:32;;;;;;;2.27;2.10;;;;;;;33.22;27.27;96498.38;5052572;28;20468;-68
2021/06/27 11:08:00;;;;;;;2.10;2.00;;;;;;;33.74;26.20;96502.25;5053355;28;20457;-67
2021/06/27 11:10:27;;;;;;;2.63;2.43;;;;;;;33.44;27.08;96499.41;5051316;28;20418;-68
2021/06/27 11:12:59;;;;;;;2.70;2.50;;;;;;;31.85;28.92;96503.34;5051690;28;20507;-68
2021/06/27 11:15:39;;;;;;;2.13;1.93;;;;;;;32.70;27.69;96504.44;5051548;28;20453;-66
2021/06/27 11:18:09;;;;;;;2.27;2.13;;;;;;;33.14;28.32;96496.47;5052507;28;20807;-67
2021/06/27 11:20:47;;;;;;;2.33;2.20;;;;;;;33.28;28.04;96499.84;5052639;28;20413;-67
2021/06/27 11:23:13;;;;;;;2.37;2.17;;;;;;;33.21;27.34;96485.91;5048253;28;20453;-66
2021/06/27 11:25:38;;;;;;;2.37;2.17;;;;;;;33.18;27.53;96489.28;5052524;28;20940;-66